Time;durP1;ratioP1;P1;durP2;ratioP2;P2;SDS_P1;SDS_P2;PMS_P1;PMS_P2;Temp;Humidity;BMP_temperature;BMP_pressure;BME280_temperature;BME280_humidity;BME280_pressure;Samples;Min_cycle;Max_cycle;Signal;HPM_P1;HPM_P2
2022/06/23 00:01:35;;;;;;;16.42;8.80;;;;;;;;;;5052118;28;20493;-69
2022/06/23 00:04:42;;;;;;;18.67;9.43;;;;;;;;;;5052537;28;20374;-69
2022/06/23 00:07:50;;;;;;;20.80;9.10;;;;;;;;;;5052180;28;20041;-69
2022/06/23 00:10:59;;;;;;;16.17;10.05;;;;;;;;;;5052130;28;20037;-69
2022/06/23 00:14:12;;;;;;;18.05;9.80;;;;;;;;;;5052643;28;20067;-70
2022/06/23 00:17:23;;;;;;;15.15;9.30;;;;;;;;;;5051123;28;20040;-69
2022/06/23 00:20:27;;;;;;;18.90;9.47;;;;;;;;;;5051911;28;20045;-69
2022/06/23 00:23:36;;;;;;;17.33;11.10;;;;;;;;;;5052242;28;20488;-69
2022/06/23 00:26:40;;;;;;;22.02;10.55;;;;;;;;;;5051426;28;20056;-69
2022/06/23 00:29:45;;;;;;;19.83;10.38;;;;;;;;;;5051060;28;20056;-69
2022/06/23 00:32:49;;;;;;;14.55;10.82;;;;;;;;;;5051708;28;20044;-69
2022/06/23 00:35:55;;;;;;;20.02;11.38;;;;;;;;;;5051945;28;20064;-70
2022/06/23 00:38:59;;;;;;;17.15;11.30;;;;;;;;;;5051674;28;20048;-69
2022/06/23 00:42:04;;;;;;;17.63;11.57;;;;;;;;;;5050931;28;20037;-69
2022/06/23 00:45:12;;;;;;;21.45;11.65;;;;;;;;;;5051770;28;20044;-69
2022/06/23 00:48:38;;;;;;;18.90;11.93;;;;;;;;;;5051702;28;20049;-69
2022/06/23 00:51:45;;;;;;;16.17;11.52;;;;;;;;;;5050947;28;20052;-69
2022/06/23 00:54:52;;;;;;;22.90;11.25;;;;;;;;;;5051595;28;20044;-69
2022/06/23 00:57:59;;;;;;;25.88;11.85;;;;;;;;;;5051263;28;20040;-69
2022/06/23 01:01:11;;;;;;;21.75;11.27;;;;;;;;;;5051261;28;20044;-69
2022/06/23 01:04:17;;;;;;;33.10;11.77;;;;;;;;;;5051152;28;20048;-69
2022/06/23 01:07:40;;;;;;;23.27;12.05;;;;;;;;;;5050864;28;20428;-69
2022/06/23 01:10:58;;;;;;;24.42;11.93;;;;;;;;;;5050989;28;20051;-69
2022/06/23 01:14:16;;;;;;;21.52;11.48;;;;;;;;;;5051122;28;20052;-69
2022/06/23 01:17:41;;;;;;;22.52;10.80;;;;;;;;;;5050228;28;20048;-69
2022/06/23 01:21:01;;;;;;;23.25;11.55;;;;;;;;;;5050944;28;20504;-69
2022/06/23 01:24:31;;;;;;;27.67;12.02;;;;;;;;;;5051420;28;20043;-69
2022/06/23 01:27:44;;;;;;;19.55;11.18;;;;;;;;;;5050890;28;20427;-69
2022/06/23 01:30:58;;;;;;;17.52;11.60;;;;;;;;;;5050624;28;20047;-69
2022/06/23 01:34:09;;;;;;;21.75;11.40;;;;;;;;;;5050723;28;20040;-69
2022/06/23 01:37:23;;;;;;;25.30;11.93;;;;;;;;;;5050013;28;20044;-69
2022/06/23 01:40:30;;;;;;;19.60;11.18;;;;;;;;;;5050628;28;20404;-69
2022/06/23 01:43:47;;;;;;;23.27;12.50;;;;;;;;;;5050755;28;20052;-69
2022/06/23 01:46:53;;;;;;;19.02;11.93;;;;;;;;;;5049801;28;20047;-69
2022/06/23 01:50:17;;;;;;;24.60;12.60;;;;;;;;;;5050568;28;20063;-69
2022/06/23 01:53:24;;;;;;;27.50;12.13;;;;;;;;;;5050764;28;20052;-70
2022/06/23 01:56:35;;;;;;;24.60;12.48;;;;;;;;;;5050726;28;20060;-69
2022/06/23 01:59:45;;;;;;;18.33;12.35;;;;;;;;;;5050891;28;20048;-69
2022/06/23 02:02:59;;;;;;;18.90;12.60;;;;;;;;;;5051432;28;20075;-69
2022/06/23 02:06:05;;;;;;;22.42;11.63;;;;;;;;;;5054644;28;20075;-69
2022/06/23 02:09:18;;;;;;;17.30;10.68;;;;;;;;;;5054558;28;20052;-69
2022/06/23 02:12:41;;;;;;;13.93;10.55;;;;;;;;;;5054616;28;20392;-69
2022/06/23 02:16:03;;;;;;;17.92;10.77;;;;;;;;;;5054562;28;20044;-69
2022/06/23 02:19:16;;;;;;;17.83;10.80;;;;;;;;;;5054355;28;20044;-69
2022/06/23 02:22:24;;;;;;;18.25;10.90;;;;;;;;;;5054364;28;20046;-69
2022/06/23 02:25:32;;;;;;;18.33;10.77;;;;;;;;;;5054121;28;20064;-69
2022/06/23 02:28:42;;;;;;;17.95;10.32;;;;;;;;;;5054289;28;20052;-69
2022/06/23 02:31:56;;;;;;;18.20;10.98;;;;;;;;;;5054244;28;20495;-69
2022/06/23 02:35:00;;;;;;;20.25;10.80;;;;;;;;;;5054109;28;20084;-69
2022/06/23 02:38:08;;;;;;;18.98;10.50;;;;;;;;;;5054143;28;20515;-69
2022/06/23 02:41:15;;;;;;;15.20;10.65;;;;;;;;;;5053887;28;20047;-69
2022/06/23 02:44:19;;;;;;;14.35;9.93;;;;;;;;;;5053971;28;20392;-69
2022/06/23 02:47:35;;;;;;;18.00;10.10;;;;;;;;;;5053739;28;20043;-69
2022/06/23 02:50:42;;;;;;;22.08;10.90;;;;;;;;;;5052628;28;20067;-69
2022/06/23 02:53:50;;;;;;;15.85;9.52;;;;;;;;;;5053865;28;20396;-69
2022/06/23 02:57:10;;;;;;;17.98;10.10;;;;;;;;;;5052913;28;20041;-69
2022/06/23 03:00:20;;;;;;;13.00;10.05;;;;;;;;;;5053619;28;20068;-69
2022/06/23 03:03:34;;;;;;;16.67;9.70;;;;;;;;;;5053411;28;20044;-69
2022/06/23 03:06:44;;;;;;;18.67;10.50;;;;;;;;;;5053538;28;20037;-69
2022/06/23 03:09:52;;;;;;;20.55;10.55;;;;;;;;;;5052534;28;20060;-69
2022/06/23 03:12:59;;;;;;;16.30;10.27;;;;;;;;;;5052735;28;20040;-69
2022/06/23 03:16:03;;;;;;;20.00;10.90;;;;;;;;;;5052704;28;20040;-69
2022/06/23 03:19:14;;;;;;;21.95;10.65;;;;;;;;;;5053198;28;20044;-69
2022/06/23 03:22:25;;;;;;;15.60;9.48;;;;;;;;;;5053807;28;20040;-69
2022/06/23 03:26:02;;;;;;;30.40;12.43;;;;;;;;;;5052849;28;20429;-69
2022/06/23 03:29:06;;;;;;;18.58;12.07;;;;;;;;;;5052308;28;20052;-69
2022/06/23 03:32:23;;;;;;;17.73;11.38;;;;;;;;;;5052914;28;20043;-69
2022/06/23 03:35:37;;;;;;;16.25;10.50;;;;;;;;;;5053071;28;20052;-69
2022/06/23 03:42:13;;;;;;;20.05;11.20;;;;;;;;;;5052684;28;20043;-69
2022/06/23 03:45:21;;;;;;;18.15;11.15;;;;;;;;;;5053033;28;20048;-69
2022/06/23 03:48:31;;;;;;;30.35;12.57;;;;;;;;;;5051858;28;20044;-69
2022/06/23 03:51:39;;;;;;;16.70;11.45;;;;;;;;;;5051861;28;20060;-69
2022/06/23 03:54:54;;;;;;;15.70;12.38;;;;;;;;;;5052427;28;20064;-69
2022/06/23 03:58:02;;;;;;;22.95;12.25;;;;;;;;;;5052672;28;20052;-69
2022/06/23 04:01:14;;;;;;;26.75;12.20;;;;;;;;;;5052398;28;20048;-69
2022/06/23 04:04:23;;;;;;;21.70;11.73;;;;;;;;;;5052171;28;20056;-69
2022/06/23 04:07:31;;;;;;;38.72;12.77;;;;;;;;;;5052946;28;20040;-69
2022/06/23 04:10:39;;;;;;;74.53;15.70;;;;;;;;;;5052221;28;20060;-69
2022/06/23 04:13:44;;;;;;;23.67;12.50;;;;;;;;;;5052264;28;20040;-68
2022/06/23 04:16:51;;;;;;;27.20;13.77;;;;;;;;;;5051704;28;20267;-69
2022/06/23 04:20:04;;;;;;;30.40;13.27;;;;;;;;;;5051301;28;20048;-69
2022/06/23 04:23:08;;;;;;;41.33;16.05;;;;;;;;;;5052140;28;20512;-69
2022/06/23 04:26:14;;;;;;;45.65;14.52;;;;;;;;;;5051132;28;20060;-68
2022/06/23 04:29:19;;;;;;;34.88;12.60;;;;;;;;;;5051757;28;20047;-69
2022/06/23 04:32:25;;;;;;;29.23;13.40;;;;;;;;;;5051944;28;20508;-69
2022/06/23 04:35:32;;;;;;;55.65;15.10;;;;;;;;;;5051828;28;20040;-69
2022/06/23 04:38:45;;;;;;;35.25;13.25;;;;;;;;;;5050617;28;20147;-69
2022/06/23 04:41:51;;;;;;;27.50;13.52;;;;;;;;;;5051841;28;20427;-69
2022/06/23 04:44:58;;;;;;;25.13;12.98;;;;;;;;;;5050970;28;20203;-69
2022/06/23 04:48:04;;;;;;;26.80;15.13;;;;;;;;;;5051718;28;20043;-69
2022/06/23 04:51:16;;;;;;;51.33;25.02;;;;;;;;;;5051270;28;20444;-69
2022/06/23 04:54:24;;;;;;;34.50;21.73;;;;;;;;;;5051451;28;20069;-68
2022/06/23 04:57:31;;;;;;;34.60;16.42;;;;;;;;;;5051095;28;20053;-69
2022/06/23 05:00:38;;;;;;;53.72;18.30;;;;;;;;;;5051398;28;20302;-69
2022/06/23 05:03:45;;;;;;;92.45;18.08;;;;;;;;;;5050994;28;20044;-69
2022/06/23 05:06:54;;;;;;;70.80;17.48;;;;;;;;;;5050415;28;20044;-69
2022/06/23 05:10:01;;;;;;;72.82;16.00;;;;;;;;;;5050128;28;20056;-70
2022/06/23 05:13:07;;;;;;;63.53;16.55;;;;;;;;;;5051259;28;20040;-69
2022/06/23 05:16:18;;;;;;;53.83;16.20;;;;;;;;;;5050982;28;20040;-69
2022/06/23 05:19:31;;;;;;;45.97;15.05;;;;;;;;;;5051031;28;20044;-69
2022/06/23 05:22:38;;;;;;;177.15;22.52;;;;;;;;;;5050970;28;20072;-70
2022/06/23 05:25:46;;;;;;;160.73;19.33;;;;;;;;;;5050352;28;20048;-69
2022/06/23 05:29:06;;;;;;;108.55;18.55;;;;;;;;;;5038431;28;20393;-69
2022/06/23 05:32:15;;;;;;;61.42;18.52;;;;;;;;;;5049963;28;20408;-69
2022/06/23 05:35:23;;;;;;;46.40;17.52;;;;;;;;;;5050657;28;20052;-69
2022/06/23 05:38:31;;;;;;;67.57;19.80;;;;;;;;;;5049504;28;20044;-69
2022/06/23 05:41:40;;;;;;;38.05;17.70;;;;;;;;;;5050741;28;20047;-69
2022/06/23 05:44:52;;;;;;;60.45;16.65;;;;;;;;;;5050573;28;20048;-71
2022/06/23 05:47:58;;;;;;;43.47;16.02;;;;;;;;;;5050532;28;20048;-69
2022/06/23 05:51:12;;;;;;;35.80;13.52;;;;;;;;;;5050384;28;20052;-69
2022/06/23 05:54:28;;;;;;;30.27;12.68;;;;;;;;;;5050891;28;20388;-69
2022/06/23 05:57:46;;;;;;;23.15;8.45;;;;;;;;;;5050529;28;20392;-69
2022/06/23 06:01:07;;;;;;;26.50;9.90;;;;;;;;;;5050622;28;20052;-76
2022/06/23 06:04:16;;;;;;;25.23;8.63;;;;;;;;;;5049913;28;20042;-73
2022/06/23 06:07:25;;;;;;;35.67;10.05;;;;;;;;;;5050462;28;20044;-73
2022/06/23 06:10:30;;;;;;;19.80;8.23;;;;;;;;;;5049638;28;20060;-72
2022/06/23 06:13:37;;;;;;;17.63;9.32;;;;;;;;;;5050769;28;20037;-75
2022/06/23 06:16:41;;;;;;;25.42;9.80;;;;;;;;;;5049713;28;20399;-73
2022/06/23 06:19:47;;;;;;;43.42;10.25;;;;;;;;;;5050347;28;20295;-83
2022/06/23 06:22:54;;;;;;;33.20;10.02;;;;;;;;;;5050386;28;20048;-70
2022/06/23 06:25:58;;;;;;;36.47;9.18;;;;;;;;;;5049793;28;20064;-73
2022/06/23 06:29:29;;;;;;;16.02;8.45;;;;;;;;;;5050365;28;20033;-75
2022/06/23 06:32:35;;;;;;;30.98;9.15;;;;;;;;;;5049516;28;20528;-71
2022/06/23 06:35:42;;;;;;;36.65;9.43;;;;;;;;;;5050174;28;20081;-73
2022/06/23 06:38:46;;;;;;;19.55;8.77;;;;;;;;;;5050097;28;20396;-74
2022/06/23 06:42:02;;;;;;;19.42;7.70;;;;;;;;;;5050300;28;20037;-70
2022/06/23 06:45:10;;;;;;;22.90;9.00;;;;;;;;;;5049961;28;20067;-70
2022/06/23 06:48:29;;;;;;;24.10;9.10;;;;;;;;;;5049815;28;20043;-73
2022/06/23 06:51:33;;;;;;;15.30;8.15;;;;;;;;;;5052075;28;20057;-70
2022/06/23 06:54:48;;;;;;;22.90;9.20;;;;;;;;;;5053797;28;20036;-70
2022/06/23 06:57:52;;;;;;;30.13;9.60;;;;;;;;;;5053618;28;20033;-70
2022/06/23 07:00:59;;;;;;;23.00;8.57;;;;;;;;;;5053397;28;20393;-71
2022/06/23 07:04:03;;;;;;;29.83;8.85;;;;;;;;;;5041440;28;20048;-70
2022/06/23 07:07:12;;;;;;;24.08;7.25;;;;;;;;;;5058964;28;20045;-81
2022/06/23 07:10:55;;;;;;;19.45;7.18;;;;;;;;;;5053261;28;20405;-69
2022/06/23 07:14:13;;;;;;;17.95;7.65;;;;;;;;;;5050968;28;20041;-70
2022/06/23 07:17:25;;;;;;;18.17;7.20;;;;;;;;;;5050480;28;20041;-69
2022/06/23 07:20:35;;;;;;;19.50;6.60;;;;;;;;;;5053584;28;20060;-70
2022/06/23 07:23:54;;;;;;;15.50;7.10;;;;;;;;;;5053212;28;20052;-68
2022/06/23 07:27:14;;;;;;;16.90;7.15;;;;;;;;;;5052492;28;20069;-68
2022/06/23 07:30:19;;;;;;;18.58;7.00;;;;;;;;;;5052140;28;20143;-69
2022/06/23 07:33:48;;;;;;;10.27;5.88;;;;;;;;;;5053164;28;20028;-71
2022/06/23 07:36:59;;;;;;;11.55;5.80;;;;;;;;;;5052944;28;20041;-68
2022/06/23 07:40:06;;;;;;;16.35;6.07;;;;;;;;;;5052747;28;20051;-69
2022/06/23 07:43:14;;;;;;;18.02;6.05;;;;;;;;;;5052766;28;20052;-70
2022/06/23 07:46:18;;;;;;;22.73;6.65;;;;;;;;;;5051781;28;20036;-70
2022/06/23 07:49:25;;;;;;;13.30;5.90;;;;;;;;;;5052053;28;20045;-70
2022/06/23 07:52:29;;;;;;;8.52;5.90;;;;;;;;;;5052648;28;20073;-69
2022/06/23 07:55:42;;;;;;;15.27;5.75;;;;;;;;;;5051844;28;20037;-69
2022/06/23 07:58:48;;;;;;;14.82;6.60;;;;;;;;;;5052328;28;20063;-69
2022/06/23 08:01:59;;;;;;;10.35;5.72;;;;;;;;;;5052039;28;20037;-68
2022/06/23 08:05:15;;;;;;;13.20;5.95;;;;;;;;;;5052098;28;20393;-70
2022/06/23 08:08:25;;;;;;;21.60;6.00;;;;;;;;;;5052179;28;20037;-69
2022/06/23 08:18:26;;;;;;;10.75;5.15;;;;;;;;;;5052089;28;20472;-72
2022/06/23 08:21:33;;;;;;;9.50;4.33;;;;;;;;;;5052145;28;20043;-70
2022/06/23 08:24:38;;;;;;;13.48;4.72;;;;;;;;;;5051011;28;20041;-69
2022/06/23 08:27:44;;;;;;;14.30;5.07;;;;;;;;;;5052062;28;20052;-70
2022/06/23 08:30:48;;;;;;;9.27;4.53;;;;;;;;;;5051735;28;20412;-69
2022/06/23 08:33:52;;;;;;;11.13;4.38;;;;;;;;;;5051638;28;20033;-72
2022/06/23 08:37:03;;;;;;;10.45;4.75;;;;;;;;;;5049237;28;20387;-71
2022/06/23 08:40:07;;;;;;;14.05;4.05;;;;;;;;;;5049709;28;20033;-70
2022/06/23 08:43:18;;;;;;;11.60;4.45;;;;;;;;;;5049540;28;20033;-73
2022/06/23 08:46:23;;;;;;;19.65;5.43;;;;;;;;;;5049687;28;20396;-72
2022/06/23 08:49:33;;;;;;;14.95;5.10;;;;;;;;;;5049646;28;20029;-72
2022/06/23 08:52:47;;;;;;;11.98;5.40;;;;;;;;;;5051182;28;20388;-72
2022/06/23 08:56:07;;;;;;;17.02;4.57;;;;;;;;;;5051469;28;20370;-73
2022/06/23 08:59:15;;;;;;;8.82;4.70;;;;;;;;;;5050480;28;20056;-73
2022/06/23 09:02:24;;;;;;;8.52;4.07;;;;;;;;;;5051244;28;20524;-71
2022/06/23 09:05:29;;;;;;;10.73;4.30;;;;;;;;;;5051058;28;20045;-71
2022/06/23 09:08:52;;;;;;;12.88;4.72;;;;;;;;;;5051357;28;20043;-71
2022/06/23 09:12:15;;;;;;;6.97;4.10;;;;;;;;;;5051011;28;20052;-71
2022/06/23 09:15:22;;;;;;;11.07;4.25;;;;;;;;;;5050912;28;20381;-73
2022/06/23 09:18:36;;;;;;;9.75;3.80;;;;;;;;;;5049755;28;20105;-71
2022/06/23 09:21:59;;;;;;;10.30;4.07;;;;;;;;;;5050887;28;20480;-69
2022/06/23 09:25:17;;;;;;;13.50;3.92;;;;;;;;;;5050822;28;20053;-70
2022/06/23 09:28:28;;;;;;;7.53;4.00;;;;;;;;;;5050901;28;20051;-71
2022/06/23 09:31:52;;;;;;;7.93;3.95;;;;;;;;;;5050618;28;20044;-71
2022/06/23 09:35:27;;;;;;;8.60;3.85;;;;;;;;;;5050953;28;20041;-72
2022/06/23 09:38:34;;;;;;;11.70;3.85;;;;;;;;;;5050765;28;20037;-72
2022/06/23 09:41:53;;;;;;;15.48;3.90;;;;;;;;;;5049886;28;20041;-72
2022/06/23 09:45:18;;;;;;;11.10;4.25;;;;;;;;;;5038544;28;20062;-70
2022/06/23 09:48:30;;;;;;;8.23;3.83;;;;;;;;;;5049991;28;20053;-72
2022/06/23 09:51:37;;;;;;;4.28;3.20;;;;;;;;;;5050569;28;20481;-71
2022/06/23 09:54:53;;;;;;;10.98;3.70;;;;;;;;;;5050877;28;20623;-70
2022/06/23 09:58:06;;;;;;;12.50;3.90;;;;;;;;;;5050932;28;20049;-70
2022/06/23 10:01:11;;;;;;;8.65;4.07;;;;;;;;;;5050626;28;20040;-71
2022/06/23 10:04:18;;;;;;;19.00;5.50;;;;;;;;;;5050642;28;20033;-71
2022/06/23 10:07:41;;;;;;;25.95;4.40;;;;;;;;;;5050360;28;20502;-72
2022/06/23 10:11:05;;;;;;;14.32;4.20;;;;;;;;;;5050308;28;20512;-72
2022/06/23 10:14:28;;;;;;;12.75;4.10;;;;;;;;;;5049529;28;20410;-75
2022/06/23 10:17:39;;;;;;;10.80;4.28;;;;;;;;;;5048468;28;20058;-74
2022/06/23 10:20:49;;;;;;;11.15;3.90;;;;;;;;;;5048414;28;20036;-74
2022/06/23 10:24:13;;;;;;;10.40;4.45;;;;;;;;;;5048431;28;20045;-73
2022/06/23 10:27:27;;;;;;;12.00;4.47;;;;;;;;;;5052008;28;20405;-76
2022/06/23 10:30:58;;;;;;;5.18;3.90;;;;;;;;;;5052468;28;20381;-79
2022/06/23 10:34:27;;;;;;;10.30;3.92;;;;;;;;;;5054022;28;20041;-74
2022/06/23 10:37:47;;;;;;;6.03;3.97;;;;;;;;;;5053791;28;20041;-72
2022/06/23 10:41:00;;;;;;;9.52;4.30;;;;;;;;;;5053082;28;20045;-72
2022/06/23 10:44:04;;;;;;;10.60;4.53;;;;;;;;;;5053464;28;20041;-71
2022/06/23 10:47:08;;;;;;;18.40;5.00;;;;;;;;;;5054112;28;20041;-72
2022/06/23 10:50:20;;;;;;;9.63;4.13;;;;;;;;;;5053549;28;20033;-72
2022/06/23 10:53:28;;;;;;;8.05;4.65;;;;;;;;;;5052849;28;20044;-72
2022/06/23 10:56:35;;;;;;;12.30;4.78;;;;;;;;;;5052588;28;20045;-72
2022/06/23 10:59:55;;;;;;;9.43;4.40;;;;;;;;;;5053323;28;20041;-72
2022/06/23 11:02:59;;;;;;;7.80;4.90;;;;;;;;;;5053171;28;20037;-73
2022/06/23 11:06:13;;;;;;;13.07;4.40;;;;;;;;;;5053379;28;20041;-73
2022/06/23 11:09:17;;;;;;;11.18;4.28;;;;;;;;;;5052749;28;20408;-72
2022/06/23 11:12:30;;;;;;;12.13;4.53;;;;;;;;;;5053481;28;20048;-73
2022/06/23 11:15:45;;;;;;;6.70;3.70;;;;;;;;;;5053196;28;20029;-72
2022/06/23 11:19:20;;;;;;;11.10;4.47;;;;;;;;;;5053443;28;20036;-72
2022/06/23 11:22:36;;;;;;;10.45;4.05;;;;;;;;;;5053246;28;20036;-72
2022/06/23 11:25:45;;;;;;;11.50;4.53;;;;;;;;;;5052840;28;20057;-73
2022/06/23 11:29:05;;;;;;;14.73;4.20;;;;;;;;;;5052249;28;20040;-72
2022/06/23 11:32:09;;;;;;;8.63;3.45;;;;;;;;;;5051772;28;20057;-72
2022/06/23 11:35:29;;;;;;;10.82;3.45;;;;;;;;;;5052928;28;20037;-71
2022/06/23 11:38:53;;;;;;;7.70;4.30;;;;;;;;;;5053158;28;20060;-72
2022/06/23 11:42:03;;;;;;;8.23;3.55;;;;;;;;;;5052021;28;20040;-72
2022/06/23 11:45:12;;;;;;;12.68;4.60;;;;;;;;;;5051757;28;20048;-73
2022/06/23 11:48:26;;;;;;;9.27;3.65;;;;;;;;;;5051721;28;20358;-73
2022/06/23 11:51:36;;;;;;;7.35;3.75;;;;;;;;;;5051217;28;20048;-72
2022/06/23 11:54:59;;;;;;;12.43;3.55;;;;;;;;;;5052705;28;20366;-73
2022/06/23 11:58:22;;;;;;;6.25;3.13;;;;;;;;;;5052743;28;20047;-72
2022/06/23 12:01:28;;;;;;;7.32;3.45;;;;;;;;;;5052589;28;20040;-72
2022/06/23 12:04:38;;;;;;;5.43;3.55;;;;;;;;;;5052393;28;20033;-73
2022/06/23 12:07:55;;;;;;;10.63;3.30;;;;;;;;;;5052139;28;20048;-72
2022/06/23 12:11:00;;;;;;;7.10;4.00;;;;;;;;;;5052141;28;20048;-72
2022/06/23 12:14:07;;;;;;;9.82;3.80;;;;;;;;;;5052167;28;20045;-72
2022/06/23 12:17:14;;;;;;;4.45;2.90;;;;;;;;;;5052022;28;20040;-72
2022/06/23 12:20:18;;;;;;;6.20;2.53;;;;;;;;;;5052203;28;20041;-73
2022/06/23 12:23:27;;;;;;;9.02;4.55;;;;;;;;;;5051110;28;20041;-72
2022/06/23 12:26:34;;;;;;;7.88;3.97;;;;;;;;;;5051527;28;20053;-73
2022/06/23 12:29:57;;;;;;;7.45;3.40;;;;;;;;;;5051193;28;20044;-77
2022/06/23 12:33:10;;;;;;;6.10;3.50;;;;;;;;;;5051877;28;20049;-77
2022/06/23 12:36:23;;;;;;;8.07;3.47;;;;;;;;;;5051894;28;20426;-77
2022/06/23 12:39:38;;;;;;;8.30;4.57;;;;;;;;;;5051562;28;20382;-77
2022/06/23 12:42:45;;;;;;;10.43;3.97;;;;;;;;;;5051962;28;20036;-75
2022/06/23 12:45:57;;;;;;;9.60;4.30;;;;;;;;;;5050897;28;20033;-74
2022/06/23 12:49:10;;;;;;;8.85;4.07;;;;;;;;;;5050895;28;20397;-76
2022/06/23 12:52:27;;;;;;;10.80;3.95;;;;;;;;;;5051270;28;20390;-74
2022/06/23 12:55:39;;;;;;;11.70;5.05;;;;;;;;;;5051383;28;20029;-76
2022/06/23 12:58:47;;;;;;;18.58;5.72;;;;;;;;;;5051495;28;20053;-74
2022/06/23 13:01:55;;;;;;;18.67;4.95;;;;;;;;;;5051359;28;20495;-74
2022/06/23 13:05:18;;;;;;;25.40;5.03;;;;;;;;;;5051317;28;20036;-74
2022/06/23 13:08:25;;;;;;;11.85;4.45;;;;;;;;;;5051133;28;20051;-72
2022/06/23 13:11:32;;;;;;;8.63;4.10;;;;;;;;;;5049987;28;20501;-72
2022/06/23 13:14:48;;;;;;;17.55;4.70;;;;;;;;;;5050764;28;20029;-74
2022/06/23 13:18:25;;;;;;;19.42;4.70;;;;;;;;;;5051279;28;20052;-75
2022/06/23 13:21:33;;;;;;;22.13;4.53;;;;;;;;;;5050082;28;20033;-74
2022/06/23 13:24:41;;;;;;;20.90;6.72;;;;;;;;;;5051024;28;20037;-72
2022/06/23 13:27:48;;;;;;;15.85;4.57;;;;;;;;;;5050786;28;20230;-72
2022/06/23 13:30:55;;;;;;;14.52;4.60;;;;;;;;;;5038688;28;20049;-74
2022/06/23 13:34:01;;;;;;;21.25;4.93;;;;;;;;;;5050918;28;20048;-74
2022/06/23 13:37:12;;;;;;;16.70;4.68;;;;;;;;;;5050936;28;20048;-74
2022/06/23 13:40:37;;;;;;;10.30;4.25;;;;;;;;;;5050880;28;20396;-75
2022/06/23 13:43:41;;;;;;;17.13;5.38;;;;;;;;;;5050706;28;20037;-74
2022/06/23 13:46:50;;;;;;;17.63;5.95;;;;;;;;;;5050554;28;20037;-75
2022/06/23 13:50:01;;;;;;;10.40;5.28;;;;;;;;;;5049874;28;20037;-74
2022/06/23 13:53:05;;;;;;;15.20;5.05;;;;;;;;;;5050814;28;20524;-74
2022/06/23 13:56:26;;;;;;;23.60;5.80;;;;;;;;;;5050239;28;20033;-74
2022/06/23 13:59:49;;;;;;;13.07;5.35;;;;;;;;;;5051602;28;20120;-73
2022/06/23 14:02:57;;;;;;;7.13;4.72;;;;;;;;;;5054887;28;20033;-74
2022/06/23 14:06:24;;;;;;;14.70;5.78;;;;;;;;;;5053393;28;20037;-75
2022/06/23 14:09:32;;;;;;;7.28;5.20;;;;;;;;;;5053858;28;20072;-76
2022/06/23 14:12:37;;;;;;;8.85;4.90;;;;;;;;;;5053494;28;20044;-77
2022/06/23 14:15:48;;;;;;;14.23;5.78;;;;;;;;;;5054541;28;20044;-78
2022/06/23 14:18:55;;;;;;;12.15;4.85;;;;;;;;;;5053641;28;20045;-76
2022/06/23 14:22:03;;;;;;;16.15;5.00;;;;;;;;;;5054439;28;20044;-74
2022/06/23 14:25:07;;;;;;;11.35;4.97;;;;;;;;;;5053920;28;20041;-75
2022/06/23 14:28:24;;;;;;;13.77;5.22;;;;;;;;;;5053693;28;20287;-73
2022/06/23 14:31:43;;;;;;;12.35;5.18;;;;;;;;;;5054122;28;20056;-73
2022/06/23 14:34:54;;;;;;;22.98;6.00;;;;;;;;;;5052133;28;20065;-73
2022/06/23 14:38:02;;;;;;;17.38;5.85;;;;;;;;;;5054121;28;20047;-73
2022/06/23 14:41:18;;;;;;;12.80;5.53;;;;;;;;;;5053312;28;20263;-79
2022/06/23 14:44:26;;;;;;;11.57;5.13;;;;;;;;;;5052153;28;20045;-77
2022/06/23 14:47:30;;;;;;;9.40;4.88;;;;;;;;;;5053568;28;20040;-76
2022/06/23 14:50:58;;;;;;;7.63;4.75;;;;;;;;;;5052595;28;20045;-79
2022/06/23 14:54:06;;;;;;;9.40;4.65;;;;;;;;;;5053021;28;20045;-79
2022/06/23 14:57:29;;;;;;;14.88;5.88;;;;;;;;;;5040195;28;20488;-78
2022/06/23 15:00:42;;;;;;;14.80;7.15;;;;;;;;;;5051863;28;20503;-78
2022/06/23 15:03:47;;;;;;;10.50;5.88;;;;;;;;;;5051849;28;20044;-79
2022/06/23 15:06:57;;;;;;;15.70;6.57;;;;;;;;;;5053542;28;20037;-79
2022/06/23 15:10:02;;;;;;;15.77;7.05;;;;;;;;;;5053510;28;20029;-81
2022/06/23 15:13:18;;;;;;;14.30;5.25;;;;;;;;;;5053242;28;20041;-82
2022/06/23 15:16:23;;;;;;;10.38;4.95;;;;;;;;;;5052655;28;20045;-74
2022/06/23 15:19:42;;;;;;;9.70;4.50;;;;;;;;;;5052455;28;20529;-76
2022/06/23 15:23:10;;;;;;;14.07;4.78;;;;;;;;;;5051672;28;20041;-77
2022/06/23 15:26:23;;;;;;;8.45;4.75;;;;;;;;;;5051112;28;20057;-77
2022/06/23 15:29:46;;;;;;;7.68;4.45;;;;;;;;;;5052610;28;20041;-78
2022/06/23 15:32:57;;;;;;;12.80;5.20;;;;;;;;;;5053159;28;20116;-77
2022/06/23 15:36:22;;;;;;;10.48;4.95;;;;;;;;;;5052899;28;20141;-75
2022/06/23 15:39:36;;;;;;;19.85;5.32;;;;;;;;;;5051644;28;20044;-74
2022/06/23 15:42:50;;;;;;;8.13;4.10;;;;;;;;;;5052797;28;20492;-73
2022/06/23 15:46:00;;;;;;;13.65;4.45;;;;;;;;;;5052318;28;20037;-74
2022/06/23 15:49:07;;;;;;;9.00;4.35;;;;;;;;;;5052607;28;20398;-75
2022/06/23 15:52:41;;;;;;;10.23;3.83;;;;;;;;;;5052414;28;20052;-76
2022/06/23 15:55:58;;;;;;;5.13;3.60;;;;;;;;;;5052423;28;20041;-75
2022/06/23 15:59:12;;;;;;;6.50;3.95;;;;;;;;;;5051689;28;20036;-74
2022/06/23 16:02:36;;;;;;;7.47;3.75;;;;;;;;;;5052333;28;20482;-74
2022/06/23 16:05:52;;;;;;;10.52;4.38;;;;;;;;;;5051326;28;20025;-76
2022/06/23 16:09:02;;;;;;;10.70;4.90;;;;;;;;;;5051444;28;20037;-78
2022/06/23 16:12:08;;;;;;;8.88;4.40;;;;;;;;;;5052074;28;20041;-76
2022/06/23 16:15:23;;;;;;;8.25;4.60;;;;;;;;;;5051429;28;20398;-75
2022/06/23 16:18:30;;;;;;;5.43;4.13;;;;;;;;;;5051407;28;20378;-74
2022/06/23 16:21:44;;;;;;;9.00;4.60;;;;;;;;;;5051894;28;20040;-77
2022/06/23 16:24:54;;;;;;;9.23;4.72;;;;;;;;;;5051366;28;20036;-75
2022/06/23 16:28:09;;;;;;;9.68;4.60;;;;;;;;;;5051599;28;20045;-77
2022/06/23 16:31:28;;;;;;;11.02;4.63;;;;;;;;;;5049975;28;20045;-80
2022/06/23 16:34:51;;;;;;;21.88;5.25;;;;;;;;;;5050399;28;20037;-78
2022/06/23 16:38:21;;;;;;;10.50;4.47;;;;;;;;;;5051484;28;20045;-78
2022/06/23 16:41:37;;;;;;;;;;;;;;;;;;5051662;28;20037;-80
2022/06/23 16:44:45;;;;;;;5.68;4.03;;;;;;;;;;5050857;28;19916;-81
2022/06/23 16:48:04;;;;;;;10.38;5.10;;;;;;;;;;5051563;28;20033;-80
2022/06/23 16:51:09;;;;;;;11.85;5.22;;;;;;;;;;5051282;28;20408;-79
2022/06/23 16:54:17;;;;;;;18.83;6.38;;;;;;;;;;5051863;28;20047;-80
2022/06/23 16:57:21;;;;;;;14.55;6.13;;;;;;;;;;5051147;28;20514;-79
2022/06/23 17:00:39;;;;;;;10.43;4.93;;;;;;;;;;5051255;28;20044;-79
2022/06/23 17:04:01;;;;;;;8.40;4.55;;;;;;;;;;5051500;28;20496;-80
2022/06/23 17:07:12;;;;;;;9.10;4.57;;;;;;;;;;5051183;28;20045;-79
2022/06/23 17:10:23;;;;;;;22.73;5.28;;;;;;;;;;5051156;28;20033;-80
2022/06/23 17:13:33;;;;;;;10.57;4.43;;;;;;;;;;5038504;28;20500;-78
2022/06/23 17:16:44;;;;;;;8.68;4.28;;;;;;;;;;5051185;28;20037;-79
2022/06/23 17:19:51;;;;;;;12.80;4.38;;;;;;;;;;5050945;28;20052;-78
2022/06/23 17:22:55;;;;;;;10.07;4.78;;;;;;;;;;5050858;28;20044;-75
2022/06/23 17:26:02;;;;;;;9.35;4.97;;;;;;;;;;5050773;28;20071;-79
2022/06/23 17:29:14;;;;;;;16.80;5.88;;;;;;;;;;5050243;28;20500;-79
2022/06/23 17:32:20;;;;;;;7.20;4.75;;;;;;;;;;5051338;28;20405;-79
2022/06/23 17:35:43;;;;;;;35.70;6.75;;;;;;;;;;5051761;28;20025;-78
2022/06/23 17:45:54;;;;;;;14.77;5.60;;;;;;;;;;5050352;28;20033;-78
2022/06/23 17:49:18;;;;;;;15.60;5.20;;;;;;;;;;5050859;28;20048;-79
2022/06/23 17:52:40;;;;;;;16.30;5.03;;;;;;;;;;5050453;28;20404;-79
2022/06/23 17:55:45;;;;;;;11.23;6.03;;;;;;;;;;5050766;28;20041;-78
2022/06/23 17:58:49;;;;;;;9.75;5.25;;;;;;;;;;5050398;28;20041;-79
2022/06/23 18:02:02;;;;;;;13.55;5.53;;;;;;;;;;5049989;28;20481;-79
2022/06/23 18:05:06;;;;;;;10.15;5.00;;;;;;;;;;5050889;28;20037;-79
2022/06/23 18:08:16;;;;;;;18.90;5.78;;;;;;;;;;5050278;28;20041;-76
2022/06/23 18:11:27;;;;;;;8.40;4.68;;;;;;;;;;5049228;28;20049;-78
2022/06/23 18:14:56;;;;;;;11.68;5.45;;;;;;;;;;5038223;28;20040;-79
2022/06/23 18:18:03;;;;;;;13.95;5.75;;;;;;;;;;5050489;28;20496;-78
2022/06/23 18:21:23;;;;;;;14.82;6.13;;;;;;;;;;5049628;28;20082;-79
2022/06/23 18:24:28;;;;;;;10.30;6.70;;;;;;;;;;5050054;28;20054;-78
2022/06/23 18:27:32;;;;;;;12.88;5.22;;;;;;;;;;5050580;28;20282;-78
2022/06/23 18:30:50;;;;;;;12.27;6.35;;;;;;;;;;5049326;28;20537;-78
2022/06/23 18:33:54;;;;;;;10.95;6.20;;;;;;;;;;5049770;28;20048;-79
2022/06/23 18:37:08;;;;;;;13.73;5.80;;;;;;;;;;5049676;28;20405;-79
2022/06/23 18:40:17;;;;;;;9.60;5.30;;;;;;;;;;5049605;28;20037;-78
2022/06/23 18:43:21;;;;;;;13.07;6.40;;;;;;;;;;5049640;28;20041;-79
2022/06/23 18:46:29;;;;;;;16.15;6.35;;;;;;;;;;5051351;28;20048;-79
2022/06/23 18:49:36;;;;;;;10.65;5.20;;;;;;;;;;5052733;28;20051;-78
2022/06/23 18:52:46;;;;;;;9.43;5.68;;;;;;;;;;5053223;28;20067;-79
2022/06/23 18:55:53;;;;;;;11.90;6.22;;;;;;;;;;5052849;28;20421;-78
2022/06/23 18:59:02;;;;;;;11.43;6.22;;;;;;;;;;5051254;28;20052;-77
2022/06/23 19:02:10;;;;;;;19.15;6.22;;;;;;;;;;5050317;28;20044;-77
2022/06/23 19:05:29;;;;;;;10.55;6.38;;;;;;;;;;5050770;28;20109;-77
2022/06/23 19:08:33;;;;;;;19.85;6.40;;;;;;;;;;5051231;28;20044;-77